Palmer, AK

3:15 AM AKDT on May 22, 2015 (GMT -0800)
Gold-Key Estates | | Change Station
CLOSE
Current Station
Personal Weather Station
Location: Palmer, AK
Elevation: 203 ft
Nearby Weather Stations

Elev 203 ft 61.62 °N, 149.10 °W | Updated 5 minutes ago

Clear
Clear
44.6 °F
Feels Like 43 °F
N
3.7
Wind Variable Wind from SSE

Today
High -- | Low -- °F
--% Chance of Precip.
Yesterday
High -- | Low -- °F
Precip. -- in
4:48 AM 10:59 PM
Waxing Crescent, 20% visible
Pressure 30.19 in
Visibility 10.0 miles
Clouds Clear
Windchill 43 °F
Dew Point 42 °F
Humidity 89%
Rainfall 0.00 in
Snow Depth Not available.
UV 0 out of 12
Pollen Not available.
Air Quality Not available.
Flu Activity Sporadic
METAR PAAQ 221053Z AUTO 35004KT 10SM CLR 07/04 A3018 RMK AO2 SLP222 T00670044 TSNO

More Conditions Fewer Conditions

Pressure 30.19 in
Visibility 10.0 miles
Clouds Clear
Windchill 43 °F
Dew Point 42 °F
Humidity 89%
Rainfall 0.00 in
Snow Depth Not available.
UV 0 out of 12
Pollen Not available.
Air Quality Not available.
Flu Activity Sporadic
METAR PAAQ 221053Z AUTO 35004KT 10SM CLR 07/04 A3018 RMK AO2 SLP222 T00670044 TSNO

More Conditions Fewer Conditions

10-Day Weather Forecast

Almanac

Astronomy

May. 22, 2015 Rise Set
Actual Time
Civil Twilight
Nautical Twilight
Astronomical Twilight
Moon
Length of Visible Light
Length of Day
Tomorrow will be .
, % of the Moon is Illuminated

Today's Extremes

State Highs State Lows

Community

WunderPhotos

Upload Photos

1,823,204 photos uploaded!

WunderBlogs® & News

Nearby

Air Quality

  Air Quality AQ Index Pollutant
Not available.

Snow Depth

Station Depth Elevation

Earthquake Activity

City Distance Mag. Time & Date
Minimum magnitude displayed is 2.5.

Coastal Water Temperatures

Place Temperature

Stations

Nearby Weather Stations

Station Location Temp. Windchill Dew Point Humidity Wind Precip. Elev Updated Type